sensor_id;sensor_type;location;lat;lon;timestamp;pressure;altitude;pressure_sealevel;temperature;humidity
10946;BME280;5525;42.648;23.368;2022-11-20T00:02:19;94031.56;;;13.99;nan
10946;BME280;5525;42.648;23.368;2022-11-20T00:04:45;94048.34;;;14.05;nan
10946;BME280;5525;42.648;23.368;2022-11-20T00:07:12;94065.56;;;13.93;nan
10946;BME280;5525;42.648;23.368;2022-11-20T00:09:39;94038.38;;;13.90;nan
10946;BME280;5525;42.648;23.368;2022-11-20T00:12:06;93994.50;;;13.65;nan
10946;BME280;5525;42.648;23.368;2022-11-20T00:14:34;93999.88;;;13.84;nan
10946;BME280;5525;42.648;23.368;2022-11-20T00:17:02;94032.25;;;14.15;nan
10946;BME280;5525;42.648;23.368;2022-11-20T00:19:29;94054.78;;;14.16;nan
10946;BME280;5525;42.648;23.368;2022-11-20T00:21:55;94008.47;;;14.28;nan
10946;BME280;5525;42.648;23.368;2022-11-20T00:24:22;93990.00;;;14.37;nan
10946;BME280;5525;42.648;23.368;2022-11-20T00:26:49;94047.50;;;14.42;nan
10946;BME280;5525;42.648;23.368;2022-11-20T00:29:16;94004.97;;;14.50;nan
10946;BME280;5525;42.648;23.368;2022-11-20T00:31:44;93967.31;;;14.26;nan
10946;BME280;5525;42.648;23.368;2022-11-20T00:34:11;94009.91;;;14.44;nan
10946;BME280;5525;42.648;23.368;2022-11-20T00:36:37;93988.75;;;14.57;nan
10946;BME280;5525;42.648;23.368;2022-11-20T00:39:04;94010.72;;;14.71;nan
10946;BME280;5525;42.648;23.368;2022-11-20T00:41:31;93985.47;;;14.70;nan
10946;BME280;5525;42.648;23.368;2022-11-20T00:43:58;94007.94;;;14.67;nan
10946;BME280;5525;42.648;23.368;2022-11-20T00:46:27;94023.88;;;14.69;nan
10946;BME280;5525;42.648;23.368;2022-11-20T00:48:56;94020.28;;;14.61;nan
10946;BME280;5525;42.648;23.368;2022-11-20T00:51:23;94012.78;;;14.77;nan
10946;BME280;5525;42.648;23.368;2022-11-20T00:53:51;94036.72;;;14.94;nan
10946;BME280;5525;42.648;23.368;2022-11-20T00:56:18;94011.34;;;14.87;nan
10946;BME280;5525;42.648;23.368;2022-11-20T00:58:47;94026.50;;;15.14;nan
10946;BME280;5525;42.648;23.368;2022-11-20T01:01:16;94005.97;;;15.46;nan
10946;BME280;5525;42.648;23.368;2022-11-20T01:03:45;94001.09;;;15.59;nan
10946;BME280;5525;42.648;23.368;2022-11-20T01:06:15;93997.59;;;15.95;nan
10946;BME280;5525;42.648;23.368;2022-11-20T01:08:43;93982.66;;;16.18;nan
10946;BME280;5525;42.648;23.368;2022-11-20T01:11:11;94000.97;;;16.61;nan
10946;BME280;5525;42.648;23.368;2022-11-20T01:13:38;93997.91;;;16.70;nan
10946;BME280;5525;42.648;23.368;2022-11-20T01:16:08;93977.63;;;16.60;nan
10946;BME280;5525;42.648;23.368;2022-11-20T01:18:36;93997.94;;;16.73;nan
10946;BME280;5525;42.648;23.368;2022-11-20T01:21:05;93990.88;;;16.65;nan
10946;BME280;5525;42.648;23.368;2022-11-20T01:23:35;93997.88;;;16.63;nan
10946;BME280;5525;42.648;23.368;2022-11-20T01:26:04;93959.69;;;16.59;nan
10946;BME280;5525;42.648;23.368;2022-11-20T01:28:31;93990.50;;;16.63;nan
10946;BME280;5525;42.648;23.368;2022-11-20T01:30:59;93984.53;;;16.51;nan
10946;BME280;5525;42.648;23.368;2022-11-20T01:33:26;93943.44;;;16.26;nan
10946;BME280;5525;42.648;23.368;2022-11-20T01:36:03;93970.44;;;16.42;nan
10946;BME280;5525;42.648;23.368;2022-11-20T01:38:30;93923.06;;;16.13;nan
10946;BME280;5525;42.648;23.368;2022-11-20T01:40:59;93908.59;;;16.02;nan
10946;BME280;5525;42.648;23.368;2022-11-20T01:43:26;93965.91;;;16.13;nan
10946;BME280;5525;42.648;23.368;2022-11-20T01:46:05;93977.06;;;16.04;nan
10946;BME280;5525;42.648;23.368;2022-11-20T01:48:36;93948.44;;;15.81;nan
10946;BME280;5525;42.648;23.368;2022-11-20T01:51:08;93932.16;;;15.84;nan
10946;BME280;5525;42.648;23.368;2022-11-20T01:53:39;93931.63;;;15.72;nan
10946;BME280;5525;42.648;23.368;2022-11-20T01:56:10;93939.47;;;15.77;nan
10946;BME280;5525;42.648;23.368;2022-11-20T01:58:42;93963.66;;;15.85;nan
10946;BME280;5525;42.648;23.368;2022-11-20T02:01:12;93957.97;;;15.97;nan
10946;BME280;5525;42.648;23.368;2022-11-20T02:03:40;93958.47;;;16.13;nan
10946;BME280;5525;42.648;23.368;2022-11-20T02:06:12;93948.19;;;15.93;nan
10946;BME280;5525;42.648;23.368;2022-11-20T02:08:41;93932.09;;;15.77;nan
10946;BME280;5525;42.648;23.368;2022-11-20T02:11:09;93973.88;;;15.95;nan
10946;BME280;5525;42.648;23.368;2022-11-20T02:13:38;93988.28;;;15.96;nan
10946;BME280;5525;42.648;23.368;2022-11-20T02:16:13;93956.59;;;15.77;nan
10946;BME280;5525;42.648;23.368;2022-11-20T02:18:41;93989.41;;;15.95;nan
10946;BME280;5525;42.648;23.368;2022-11-20T02:21:15;93916.63;;;15.48;nan
10946;BME280;5525;42.648;23.368;2022-11-20T02:24:06;93960.22;;;15.88;nan
10946;BME280;5525;42.648;23.368;2022-11-20T02:26:37;93956.22;;;15.82;nan
10946;BME280;5525;42.648;23.368;2022-11-20T02:29:05;93937.16;;;15.82;nan
10946;BME280;5525;42.648;23.368;2022-11-20T02:31:37;93933.75;;;15.89;nan
10946;BME280;5525;42.648;23.368;2022-11-20T02:34:05;93956.47;;;16.03;nan
10946;BME280;5525;42.648;23.368;2022-11-20T02:36:33;93958.56;;;16.20;nan
10946;BME280;5525;42.648;23.368;2022-11-20T02:39:03;93971.44;;;16.27;nan
10946;BME280;5525;42.648;23.368;2022-11-20T02:41:32;93979.19;;;16.21;nan
10946;BME280;5525;42.648;23.368;2022-11-20T02:44:00;93963.19;;;16.16;nan
10946;BME280;5525;42.648;23.368;2022-11-20T02:46:27;93970.22;;;16.17;nan
10946;BME280;5525;42.648;23.368;2022-11-20T02:48:54;94004.31;;;16.92;nan
10946;BME280;5525;42.648;23.368;2022-11-20T02:51:21;93954.50;;;16.98;nan
10946;BME280;5525;42.648;23.368;2022-11-20T02:53:48;93990.06;;;17.16;nan
10946;BME280;5525;42.648;23.368;2022-11-20T02:56:16;94006.53;;;17.33;nan
10946;BME280;5525;42.648;23.368;2022-11-20T02:58:43;93954.38;;;17.49;nan
10946;BME280;5525;42.648;23.368;2022-11-20T03:01:10;93983.72;;;17.66;nan
10946;BME280;5525;42.648;23.368;2022-11-20T03:03:37;93995.91;;;17.96;nan
10946;BME280;5525;42.648;23.368;2022-11-20T03:06:04;94011.50;;;17.96;nan
10946;BME280;5525;42.648;23.368;2022-11-20T03:08:31;93996.28;;;17.88;nan
10946;BME280;5525;42.648;23.368;2022-11-20T03:11:02;94009.16;;;17.98;nan
10946;BME280;5525;42.648;23.368;2022-11-20T03:13:32;94021.28;;;17.97;nan
10946;BME280;5525;42.648;23.368;2022-11-20T03:16:05;94006.88;;;18.17;nan
10946;BME280;5525;42.648;23.368;2022-11-20T03:18:32;94007.28;;;18.19;nan
10946;BME280;5525;42.648;23.368;2022-11-20T03:20:59;94013.56;;;18.30;nan
10946;BME280;5525;42.648;23.368;2022-11-20T03:23:29;94026.81;;;18.25;nan
10946;BME280;5525;42.648;23.368;2022-11-20T03:25:55;94030.72;;;18.24;nan
10946;BME280;5525;42.648;23.368;2022-11-20T03:28:22;94011.56;;;18.17;nan
10946;BME280;5525;42.648;23.368;2022-11-20T03:30:50;94004.50;;;18.05;nan
10946;BME280;5525;42.648;23.368;2022-11-20T03:33:17;94022.94;;;18.29;nan
10946;BME280;5525;42.648;23.368;2022-11-20T03:35:44;94033.06;;;18.25;nan
10946;BME280;5525;42.648;23.368;2022-11-20T03:38:11;93983.03;;;18.04;nan
10946;BME280;5525;42.648;23.368;2022-11-20T03:40:38;94024.06;;;18.21;nan
10946;BME280;5525;42.648;23.368;2022-11-20T03:43:04;93980.28;;;17.93;nan
10946;BME280;5525;42.648;23.368;2022-11-20T03:45:31;94051.84;;;18.34;nan
10946;BME280;5525;42.648;23.368;2022-11-20T03:47:59;94010.38;;;18.07;nan
10946;BME280;5525;42.648;23.368;2022-11-20T03:50:26;94052.94;;;18.12;nan
10946;BME280;5525;42.648;23.368;2022-11-20T03:52:53;94037.69;;;18.04;nan
10946;BME280;5525;42.648;23.368;2022-11-20T03:55:20;94032.63;;;18.09;nan
10946;BME280;5525;42.648;23.368;2022-11-20T03:57:47;94042.75;;;18.05;nan
10946;BME280;5525;42.648;23.368;2022-11-20T04:00:14;94034.59;;;18.12;nan
10946;BME280;5525;42.648;23.368;2022-11-20T04:02:41;94036.56;;;18.15;nan
10946;BME280;5525;42.648;23.368;2022-11-20T04:05:09;94029.13;;;18.19;nan
10946;BME280;5525;42.648;23.368;2022-11-20T04:07:36;94031.53;;;18.28;nan
10946;BME280;5525;42.648;23.368;2022-11-20T04:10:04;94025.59;;;18.01;nan
10946;BME280;5525;42.648;23.368;2022-11-20T04:12:32;94036.47;;;17.94;nan
10946;BME280;5525;42.648;23.368;2022-11-20T04:15:00;94008.38;;;17.94;nan
10946;BME280;5525;42.648;23.368;2022-11-20T04:17:27;94047.50;;;18.15;nan
10946;BME280;5525;42.648;23.368;2022-11-20T04:19:54;94018.91;;;17.92;nan
10946;BME280;5525;42.648;23.368;2022-11-20T04:22:22;94048.19;;;17.95;nan
10946;BME280;5525;42.648;23.368;2022-11-20T04:24:49;94057.19;;;18.02;nan
10946;BME280;5525;42.648;23.368;2022-11-20T04:27:16;94014.91;;;17.68;nan
10946;BME280;5525;42.648;23.368;2022-11-20T04:29:42;94070.41;;;17.90;nan
10946;BME280;5525;42.648;23.368;2022-11-20T04:32:09;94064.94;;;17.90;nan
10946;BME280;5525;42.648;23.368;2022-11-20T04:34:36;94065.38;;;17.95;nan
10946;BME280;5525;42.648;23.368;2022-11-20T04:37:03;94047.78;;;17.96;nan
10946;BME280;5525;42.648;23.368;2022-11-20T04:39:31;94054.84;;;17.97;nan
10946;BME280;5525;42.648;23.368;2022-11-20T04:41:58;94057.97;;;17.99;nan
10946;BME280;5525;42.648;23.368;2022-11-20T04:44:39;94057.94;;;17.92;nan
10946;BME280;5525;42.648;23.368;2022-11-20T04:47:06;94041.44;;;17.64;nan
10946;BME280;5525;42.648;23.368;2022-11-20T04:49:32;94060.25;;;17.87;nan
10946;BME280;5525;42.648;23.368;2022-11-20T04:52:00;94044.59;;;17.73;nan
10946;BME280;5525;42.648;23.368;2022-11-20T04:54:27;94027.41;;;17.73;nan
10946;BME280;5525;42.648;23.368;2022-11-20T04:56:55;94007.81;;;17.50;nan
10946;BME280;5525;42.648;23.368;2022-11-20T04:59:22;94011.00;;;17.59;nan
10946;BME280;5525;42.648;23.368;2022-11-20T05:01:49;94047.75;;;17.79;nan
10946;BME280;5525;42.648;23.368;2022-11-20T05:04:17;94038.81;;;17.89;nan
10946;BME280;5525;42.648;23.368;2022-11-20T05:06:44;94035.63;;;17.76;nan
10946;BME280;5525;42.648;23.368;2022-11-20T05:09:11;94037.56;;;17.72;nan
10946;BME280;5525;42.648;23.368;2022-11-20T05:11:38;94030.81;;;17.49;nan
10946;BME280;5525;42.648;23.368;2022-11-20T05:14:06;94046.84;;;17.54;nan
10946;BME280;5525;42.648;23.368;2022-11-20T05:16:34;94000.72;;;17.38;nan
10946;BME280;5525;42.648;23.368;2022-11-20T05:19:02;94018.31;;;17.44;nan
10946;BME280;5525;42.648;23.368;2022-11-20T05:21:30;94026.06;;;17.39;nan
10946;BME280;5525;42.648;23.368;2022-11-20T05:23:57;94014.25;;;17.21;nan
10946;BME280;5525;42.648;23.368;2022-11-20T05:26:24;94009.94;;;17.13;nan
10946;BME280;5525;42.648;23.368;2022-11-20T05:28:51;94004.78;;;17.04;nan
10946;BME280;5525;42.648;23.368;2022-11-20T05:31:21;94002.72;;;16.87;nan
10946;BME280;5525;42.648;23.368;2022-11-20T05:33:48;93991.25;;;16.64;nan
10946;BME280;5525;42.648;23.368;2022-11-20T05:36:15;93972.22;;;16.27;nan
10946;BME280;5525;42.648;23.368;2022-11-20T05:38:43;93985.97;;;16.41;nan
10946;BME280;5525;42.648;23.368;2022-11-20T05:41:12;93987.06;;;16.33;nan
10946;BME280;5525;42.648;23.368;2022-11-20T05:43:40;93996.03;;;16.34;nan
10946;BME280;5525;42.648;23.368;2022-11-20T05:46:08;93992.59;;;16.40;nan
10946;BME280;5525;42.648;23.368;2022-11-20T05:48:37;94004.13;;;16.23;nan
10946;BME280;5525;42.648;23.368;2022-11-20T05:51:07;93980.22;;;16.10;nan
10946;BME280;5525;42.648;23.368;2022-11-20T05:53:34;93954.50;;;16.04;nan
10946;BME280;5525;42.648;23.368;2022-11-20T05:56:03;93956.78;;;15.98;nan
10946;BME280;5525;42.648;23.368;2022-11-20T05:58:32;93993.56;;;16.18;nan
10946;BME280;5525;42.648;23.368;2022-11-20T06:01:04;93978.25;;;16.07;nan
10946;BME280;5525;42.648;23.368;2022-11-20T06:03:31;93984.16;;;16.12;nan
10946;BME280;5525;42.648;23.368;2022-11-20T06:06:00;93991.06;;;16.03;nan
10946;BME280;5525;42.648;23.368;2022-11-20T06:08:27;94004.03;;;16.16;nan
10946;BME280;5525;42.648;23.368;2022-11-20T06:10:54;94004.88;;;16.20;nan
10946;BME280;5525;42.648;23.368;2022-11-20T06:13:21;94003.69;;;16.21;nan
10946;BME280;5525;42.648;23.368;2022-11-20T06:15:48;94011.53;;;16.26;nan
10946;BME280;5525;42.648;23.368;2022-11-20T06:18:15;94012.75;;;16.32;nan
10946;BME280;5525;42.648;23.368;2022-11-20T06:20:42;93992.09;;;16.31;nan
10946;BME280;5525;42.648;23.368;2022-11-20T06:23:10;94019.84;;;16.40;nan
10946;BME280;5525;42.648;23.368;2022-11-20T06:25:37;94010.88;;;16.40;nan
10946;BME280;5525;42.648;23.368;2022-11-20T06:28:05;94027.22;;;16.40;nan
10946;BME280;5525;42.648;23.368;2022-11-20T06:30:32;94002.16;;;16.24;nan
10946;BME280;5525;42.648;23.368;2022-11-20T06:32:59;94043.28;;;16.48;nan
10946;BME280;5525;42.648;23.368;2022-11-20T06:35:27;94037.03;;;16.44;nan
10946;BME280;5525;42.648;23.368;2022-11-20T06:37:53;94037.38;;;16.43;nan
10946;BME280;5525;42.648;23.368;2022-11-20T06:40:23;93987.81;;;16.30;nan
10946;BME280;5525;42.648;23.368;2022-11-20T06:42:50;94025.94;;;16.67;nan
10946;BME280;5525;42.648;23.368;2022-11-20T06:45:17;94035.09;;;16.92;nan
10946;BME280;5525;42.648;23.368;2022-11-20T06:47:44;94022.38;;;17.10;nan
10946;BME280;5525;42.648;23.368;2022-11-20T06:50:10;94028.22;;;17.12;nan
10946;BME280;5525;42.648;23.368;2022-11-20T06:52:37;94040.75;;;17.24;nan
10946;BME280;5525;42.648;23.368;2022-11-20T06:55:05;94032.13;;;17.15;nan
10946;BME280;5525;42.648;23.368;2022-11-20T06:57:34;94040.47;;;17.39;nan
10946;BME280;5525;42.648;23.368;2022-11-20T07:00:01;94022.91;;;17.37;nan
10946;BME280;5525;42.648;23.368;2022-11-20T07:02:28;94001.41;;;17.25;nan
10946;BME280;5525;42.648;23.368;2022-11-20T07:04:54;94036.31;;;17.52;nan
10946;BME280;5525;42.648;23.368;2022-11-20T07:07:21;94068.78;;;17.75;nan
10946;BME280;5525;42.648;23.368;2022-11-20T07:09:48;94073.09;;;17.83;nan
10946;BME280;5525;42.648;23.368;2022-11-20T07:12:15;94057.94;;;17.92;nan
10946;BME280;5525;42.648;23.368;2022-11-20T07:14:43;94042.66;;;17.77;nan
10946;BME280;5525;42.648;23.368;2022-11-20T07:17:10;94048.91;;;17.74;nan
10946;BME280;5525;42.648;23.368;2022-11-20T07:19:37;94060.16;;;17.66;nan
10946;BME280;5525;42.648;23.368;2022-11-20T07:22:04;94053.13;;;17.68;nan
10946;BME280;5525;42.648;23.368;2022-11-20T07:24:31;94041.69;;;17.45;nan
10946;BME280;5525;42.648;23.368;2022-11-20T07:26:58;94065.19;;;17.64;nan
10946;BME280;5525;42.648;23.368;2022-11-20T07:29:25;94050.41;;;17.65;nan
10946;BME280;5525;42.648;23.368;2022-11-20T07:31:53;94027.97;;;17.35;nan
10946;BME280;5525;42.648;23.368;2022-11-20T07:34:22;94063.63;;;17.59;nan
10946;BME280;5525;42.648;23.368;2022-11-20T07:36:49;94060.38;;;17.40;nan
10946;BME280;5525;42.648;23.368;2022-11-20T07:39:16;94037.75;;;17.39;nan
10946;BME280;5525;42.648;23.368;2022-11-20T07:41:43;94051.16;;;17.62;nan
10946;BME280;5525;42.648;23.368;2022-11-20T07:44:10;94053.84;;;17.51;nan
10946;BME280;5525;42.648;23.368;2022-11-20T07:46:37;94015.88;;;17.32;nan
10946;BME280;5525;42.648;23.368;2022-11-20T07:49:05;94055.44;;;17.59;nan
10946;BME280;5525;42.648;23.368;2022-11-20T07:51:32;94053.88;;;17.58;nan
10946;BME280;5525;42.648;23.368;2022-11-20T07:53:59;94034.25;;;17.39;nan
10946;BME280;5525;42.648;23.368;2022-11-20T07:56:25;94027.13;;;17.24;nan
10946;BME280;5525;42.648;23.368;2022-11-20T07:58:53;94033.00;;;17.26;nan
10946;BME280;5525;42.648;23.368;2022-11-20T08:01:19;94069.72;;;17.42;nan
10946;BME280;5525;42.648;23.368;2022-11-20T08:03:46;94056.84;;;17.36;nan
10946;BME280;5525;42.648;23.368;2022-11-20T08:06:15;94060.81;;;17.45;nan
10946;BME280;5525;42.648;23.368;2022-11-20T08:08:43;94058.44;;;17.40;nan
10946;BME280;5525;42.648;23.368;2022-11-20T08:11:10;94036.19;;;17.38;nan
10946;BME280;5525;42.648;23.368;2022-11-20T08:13:54;94023.06;;;17.54;nan
10946;BME280;5525;42.648;23.368;2022-11-20T08:16:39;94055.59;;;17.91;nan
10946;BME280;5525;42.648;23.368;2022-11-20T08:19:07;94061.09;;;18.01;nan
10946;BME280;5525;42.648;23.368;2022-11-20T08:21:36;94027.47;;;17.87;nan
10946;BME280;5525;42.648;23.368;2022-11-20T08:24:03;94013.00;;;17.72;nan
10946;BME280;5525;42.648;23.368;2022-11-20T08:26:30;94045.06;;;17.96;nan
10946;BME280;5525;42.648;23.368;2022-11-20T08:28:58;94055.66;;;18.05;nan
10946;BME280;5525;42.648;23.368;2022-11-20T08:31:26;94048.63;;;18.07;nan
10946;BME280;5525;42.648;23.368;2022-11-20T08:33:53;94081.09;;;18.30;nan
10946;BME280;5525;42.648;23.368;2022-11-20T08:36:21;94067.81;;;18.32;nan
10946;BME280;5525;42.648;23.368;2022-11-20T08:38:50;94058.13;;;18.41;nan
10946;BME280;5525;42.648;23.368;2022-11-20T08:41:18;94072.19;;;18.40;nan
10946;BME280;5525;42.648;23.368;2022-11-20T08:43:54;94077.25;;;18.38;nan
10946;BME280;5525;42.648;23.368;2022-11-20T08:46:22;94080.78;;;18.38;nan
10946;BME280;5525;42.648;23.368;2022-11-20T08:48:50;94090.47;;;18.36;nan
10946;BME280;5525;42.648;23.368;2022-11-20T08:51:17;94107.31;;;18.38;nan
10946;BME280;5525;42.648;23.368;2022-11-20T08:53:44;94120.16;;;18.34;nan
10946;BME280;5525;42.648;23.368;2022-11-20T08:56:12;94122.84;;;18.20;nan
10946;BME280;5525;42.648;23.368;2022-11-20T08:58:39;94119.28;;;18.16;nan
10946;BME280;5525;42.648;23.368;2022-11-20T09:01:06;94122.38;;;18.04;nan
10946;BME280;5525;42.648;23.368;2022-11-20T09:03:33;94097.41;;;18.02;nan
10946;BME280;5525;42.648;23.368;2022-11-20T09:06:01;94107.56;;;18.05;nan
10946;BME280;5525;42.648;23.368;2022-11-20T09:08:28;94110.59;;;17.89;nan
10946;BME280;5525;42.648;23.368;2022-11-20T09:10:56;94079.25;;;17.66;nan
10946;BME280;5525;42.648;23.368;2022-11-20T09:13:28;94119.50;;;17.76;nan
10946;BME280;5525;42.648;23.368;2022-11-20T09:15:56;94116.91;;;17.43;nan
10946;BME280;5525;42.648;23.368;2022-11-20T09:18:23;94123.06;;;17.29;nan
10946;BME280;5525;42.648;23.368;2022-11-20T09:20:50;94099.41;;;16.97;nan
10946;BME280;5525;42.648;23.368;2022-11-20T09:23:17;94075.22;;;16.48;nan
10946;BME280;5525;42.648;23.368;2022-11-20T09:25:44;94104.84;;;16.53;nan
10946;BME280;5525;42.648;23.368;2022-11-20T09:28:11;94081.72;;;16.40;nan
10946;BME280;5525;42.648;23.368;2022-11-20T09:30:40;94071.81;;;16.21;nan
10946;BME280;5525;42.648;23.368;2022-11-20T09:33:06;94098.34;;;16.31;nan
10946;BME280;5525;42.648;23.368;2022-11-20T09:35:34;94096.00;;;16.30;nan
10946;BME280;5525;42.648;23.368;2022-11-20T09:38:05;94085.53;;;16.32;nan
10946;BME280;5525;42.648;23.368;2022-11-20T09:40:35;94064.97;;;16.38;nan
10946;BME280;5525;42.648;23.368;2022-11-20T09:43:14;94061.56;;;16.44;nan
10946;BME280;5525;42.648;23.368;2022-11-20T09:45:58;94030.13;;;16.54;nan
10946;BME280;5525;42.648;23.368;2022-11-20T09:49:03;94075.00;;;16.63;nan
10946;BME280;5525;42.648;23.368;2022-11-20T09:51:46;94002.75;;;16.43;nan
10946;BME280;5525;42.648;23.368;2022-11-20T09:54:17;94078.38;;;16.97;nan
10946;BME280;5525;42.648;23.368;2022-11-20T09:56:51;94075.84;;;17.22;nan
10946;BME280;5525;42.648;23.368;2022-11-20T09:59:33;94032.50;;;17.13;nan
10946;BME280;5525;42.648;23.368;2022-11-20T10:02:16;94047.47;;;17.33;nan
10946;BME280;5525;42.648;23.368;2022-11-20T10:04:53;94047.38;;;17.87;nan
10946;BME280;5525;42.648;23.368;2022-11-20T10:10:29;94065.09;;;18.32;nan
10946;BME280;5525;42.648;23.368;2022-11-20T10:13:27;94052.94;;;18.12;nan
10946;BME280;5525;42.648;23.368;2022-11-20T10:16:13;94015.00;;;17.93;nan
10946;BME280;5525;42.648;23.368;2022-11-20T10:18:58;94029.03;;;17.91;nan
10946;BME280;5525;42.648;23.368;2022-11-20T10:21:37;94052.56;;;18.17;nan
10946;BME280;5525;42.648;23.368;2022-11-20T10:27:21;94034.16;;;18.00;nan
10946;BME280;5525;42.648;23.368;2022-11-20T10:30:00;94039.44;;;17.58;nan
10946;BME280;5525;42.648;23.368;2022-11-20T10:32:35;94041.94;;;17.23;nan
10946;BME280;5525;42.648;23.368;2022-11-20T10:35:16;94029.84;;;17.20;nan
10946;BME280;5525;42.648;23.368;2022-11-20T10:37:46;94045.94;;;17.36;nan
10946;BME280;5525;42.648;23.368;2022-11-20T10:40:25;94033.22;;;17.61;nan
10946;BME280;5525;42.648;23.368;2022-11-20T10:42:56;94025.34;;;17.49;nan
10946;BME280;5525;42.648;23.368;2022-11-20T10:45:40;94047.84;;;17.28;nan
10946;BME280;5525;42.648;23.368;2022-11-20T10:48:16;94013.03;;;17.11;nan
10946;BME280;5525;42.648;23.368;2022-11-20T10:53:57;94032.25;;;17.32;nan
10946;BME280;5525;42.648;23.368;2022-11-20T10:56:35;94026.63;;;17.04;nan
10946;BME280;5525;42.648;23.368;2022-11-20T10:59:27;94078.53;;;17.18;nan
10946;BME280;5525;42.648;23.368;2022-11-20T11:01:56;94064.31;;;16.88;nan
10946;BME280;5525;42.648;23.368;2022-11-20T11:04:36;94069.59;;;16.70;nan
10946;BME280;5525;42.648;23.368;2022-11-20T11:07:09;94089.06;;;16.69;nan
10946;BME280;5525;42.648;23.368;2022-11-20T11:09:41;94092.59;;;16.36;nan
10946;BME280;5525;42.648;23.368;2022-11-20T11:12:10;94088.41;;;16.09;nan
10946;BME280;5525;42.648;23.368;2022-11-20T11:14:45;94104.88;;;15.61;nan
10946;BME280;5525;42.648;23.368;2022-11-20T11:17:25;94100.47;;;15.49;nan
10946;BME280;5525;42.648;23.368;2022-11-20T11:20:00;94149.59;;;15.60;nan
10946;BME280;5525;42.648;23.368;2022-11-20T11:22:28;94141.38;;;15.07;nan
10946;BME280;5525;42.648;23.368;2022-11-20T11:25:00;94094.47;;;14.43;nan
10946;BME280;5525;42.648;23.368;2022-11-20T11:27:27;94093.00;;;14.26;nan
10946;BME280;5525;42.648;23.368;2022-11-20T11:30:13;94099.09;;;14.01;nan
10946;BME280;5525;42.648;23.368;2022-11-20T11:32:41;94117.56;;;13.95;nan
10946;BME280;5525;42.648;23.368;2022-11-20T11:35:23;94123.22;;;13.87;nan
10946;BME280;5525;42.648;23.368;2022-11-20T11:37:51;94069.66;;;13.45;nan
10946;BME280;5525;42.648;23.368;2022-11-20T11:40:22;94118.78;;;13.59;nan
10946;BME280;5525;42.648;23.368;2022-11-20T11:42:57;94076.47;;;13.20;nan
10946;BME280;5525;42.648;23.368;2022-11-20T11:45:25;94097.69;;;13.34;nan
10946;BME280;5525;42.648;23.368;2022-11-20T11:47:52;94115.84;;;13.14;nan
10946;BME280;5525;42.648;23.368;2022-11-20T11:50:22;94105.69;;;12.96;nan
10946;BME280;5525;42.648;23.368;2022-11-20T11:53:07;94064.84;;;12.54;nan
10946;BME280;5525;42.648;23.368;2022-11-20T11:55:40;94124.59;;;12.77;nan
10946;BME280;5525;42.648;23.368;2022-11-20T11:58:24;94096.03;;;12.64;nan
10946;BME280;5525;42.648;23.368;2022-11-20T12:00:58;94094.03;;;12.61;nan
10946;BME280;5525;42.648;23.368;2022-11-20T12:03:34;94068.59;;;12.50;nan
10946;BME280;5525;42.648;23.368;2022-11-20T12:06:06;94028.84;;;12.23;nan
10946;BME280;5525;42.648;23.368;2022-11-20T12:08:43;94040.28;;;12.47;nan
10946;BME280;5525;42.648;23.368;2022-11-20T12:11:16;94080.53;;;12.64;nan
10946;BME280;5525;42.648;23.368;2022-11-20T12:13:49;94070.50;;;12.65;nan
10946;BME280;5525;42.648;23.368;2022-11-20T12:16:20;94079.00;;;12.63;nan
10946;BME280;5525;42.648;23.368;2022-11-20T12:18:49;94087.63;;;12.53;nan
10946;BME280;5525;42.648;23.368;2022-11-20T12:21:23;94084.31;;;12.44;nan
10946;BME280;5525;42.648;23.368;2022-11-20T12:24:06;94065.53;;;12.20;nan
10946;BME280;5525;42.648;23.368;2022-11-20T12:26:56;94094.09;;;12.49;nan
10946;BME280;5525;42.648;23.368;2022-11-20T12:29:36;94113.47;;;12.35;nan
10946;BME280;5525;42.648;23.368;2022-11-20T12:32:37;94105.19;;;12.28;nan
10946;BME280;5525;42.648;23.368;2022-11-20T12:35:26;94095.53;;;12.15;nan
10946;BME280;5525;42.648;23.368;2022-11-20T12:38:07;94041.16;;;12.05;nan
10946;BME280;5525;42.648;23.368;2022-11-20T12:40:49;94036.81;;;12.31;nan
10946;BME280;5525;42.648;23.368;2022-11-20T12:43:21;93993.03;;;12.45;nan
10946;BME280;5525;42.648;23.368;2022-11-20T12:46:18;93986.41;;;12.42;nan
10946;BME280;5525;42.648;23.368;2022-11-20T12:49:12;93989.97;;;12.46;nan
10946;BME280;5525;42.648;23.368;2022-11-20T12:52:06;94016.34;;;12.49;nan
10946;BME280;5525;42.648;23.368;2022-11-20T12:55:04;93996.97;;;12.47;nan
10946;BME280;5525;42.648;23.368;2022-11-20T12:57:41;93965.88;;;12.41;nan
10946;BME280;5525;42.648;23.368;2022-11-20T13:00:14;93984.47;;;12.58;nan
10946;BME280;5525;42.648;23.368;2022-11-20T13:03:00;93977.31;;;12.85;nan
10946;BME280;5525;42.648;23.368;2022-11-20T13:05:37;93976.03;;;12.98;nan
10946;BME280;5525;42.648;23.368;2022-11-20T13:08:14;93932.97;;;13.08;nan
10946;BME280;5525;42.648;23.368;2022-11-20T13:10:49;93949.00;;;13.36;nan
10946;BME280;5525;42.648;23.368;2022-11-20T13:13:24;93954.13;;;13.41;nan
10946;BME280;5525;42.648;23.368;2022-11-20T13:15:59;93951.06;;;13.23;nan
10946;BME280;5525;42.648;23.368;2022-11-20T13:18:27;93981.09;;;12.99;nan
10946;BME280;5525;42.648;23.368;2022-11-20T13:21:00;94019.69;;;12.93;nan
10946;BME280;5525;42.648;23.368;2022-11-20T13:23:27;94012.19;;;13.02;nan
10946;BME280;5525;42.648;23.368;2022-11-20T13:26:06;94006.94;;;13.28;nan
10946;BME280;5525;42.648;23.368;2022-11-20T13:28:40;94012.66;;;13.42;nan
10946;BME280;5525;42.648;23.368;2022-11-20T13:31:28;94059.59;;;13.46;nan
10946;BME280;5525;42.648;23.368;2022-11-20T13:33:57;94046.22;;;13.18;nan
10946;BME280;5525;42.648;23.368;2022-11-20T13:36:27;94031.25;;;13.24;nan
10946;BME280;5525;42.648;23.368;2022-11-20T13:38:56;94036.84;;;13.31;nan
10946;BME280;5525;42.648;23.368;2022-11-20T13:41:25;94048.25;;;13.40;nan
10946;BME280;5525;42.648;23.368;2022-11-20T13:44:09;94038.69;;;13.46;nan
10946;BME280;5525;42.648;23.368;2022-11-20T13:46:40;94062.03;;;13.51;nan
10946;BME280;5525;42.648;23.368;2022-11-20T13:49:10;94044.38;;;13.22;nan
10946;BME280;5525;42.648;23.368;2022-11-20T13:51:43;94051.66;;;13.56;nan